createdAt,value
2016-05-23T00:00:22.090Z,0
2016-05-23T00:01:22.078Z,0
2016-05-23T00:02:22.050Z,0
2016-05-23T00:03:22.036Z,0
2016-05-23T00:04:22.023Z,0
2016-05-23T00:05:21.995Z,0
2016-05-23T00:06:21.966Z,0
2016-05-23T00:07:21.953Z,0
2016-05-23T00:08:21.941Z,0
2016-05-23T00:09:21.912Z,0
2016-05-23T00:10:21.899Z,0
2016-05-23T00:11:21.870Z,0
2016-05-23T00:12:21.842Z,0
2016-05-23T00:13:21.844Z,0
2016-05-23T00:14:22.346Z,0
2016-05-23T00:15:21.802Z,0
2016-05-23T00:16:21.759Z,0
2016-05-23T00:17:21.746Z,0
2016-05-23T00:18:21.748Z,0
2016-05-23T00:19:21.705Z,0
2016-05-23T00:20:21.691Z,0
2016-05-23T00:21:21.679Z,0
2016-05-23T00:22:21.649Z,0
2016-05-23T00:23:21.638Z,0
2016-05-23T00:24:21.468Z,0
2016-05-23T00:25:21.595Z,0
2016-05-23T00:26:21.583Z,0
2016-05-23T00:27:21.584Z,0
2016-05-23T00:28:21.385Z,0
2016-05-23T00:29:21.543Z,0
2016-05-23T00:30:21.500Z,0
2016-05-23T00:31:21.315Z,0
2016-05-23T00:32:21.458Z,0
2016-05-23T00:33:21.429Z,0
2016-05-23T00:34:21.432Z,0
2016-05-23T00:35:21.403Z,0
2016-05-23T00:36:21.391Z,0
2016-05-23T00:37:21.362Z,0
2016-05-23T00:38:21.350Z,0
2016-05-23T00:39:21.320Z,0
2016-05-23T00:40:21.308Z,0
2016-05-23T00:41:21.279Z,0
2016-05-23T00:42:21.282Z,0
2016-05-23T00:43:21.253Z,0
2016-05-23T00:44:21.288Z,0
2016-05-23T00:45:21.196Z,0
2016-05-23T00:46:21.183Z,0
2016-05-23T00:47:21.171Z,0
2016-05-23T00:48:21.157Z,0
2016-05-23T00:49:21.129Z,0
2016-05-23T00:50:21.116Z,0
2016-05-23T00:51:21.103Z,0
2016-05-23T00:52:21.074Z,0
2016-05-23T00:53:21.061Z,0
2016-05-23T00:54:21.033Z,0
2016-05-23T00:55:21.020Z,0
2016-05-23T00:56:20.850Z,0
2016-05-23T00:57:20.979Z,0
2016-05-23T00:58:20.950Z,0
2016-05-23T00:59:21.124Z,0
2016-05-23T01:00:20.908Z,0
2016-05-23T01:01:20.740Z,0
2016-05-23T01:02:20.867Z,0
2016-05-23T01:03:20.853Z,0
2016-05-23T01:04:20.857Z,0
2016-05-23T01:05:20.672Z,0
2016-05-23T01:06:20.643Z,0
2016-05-23T01:07:20.599Z,0
2016-05-23T01:08:20.742Z,0
2016-05-23T01:09:20.761Z,0
2016-05-23T01:10:20.716Z,0
2016-05-23T01:11:20.719Z,0
2016-05-23T01:12:20.675Z,0
2016-05-23T01:13:20.662Z,0
2016-05-23T01:14:20.883Z,0
2016-05-23T01:15:20.605Z,0
2016-05-23T01:16:20.608Z,0
2016-05-23T01:17:20.422Z,0
2016-05-23T01:18:20.566Z,0
2016-05-23T01:19:20.553Z,0
2016-05-23T01:20:20.525Z,0
2016-05-23T01:21:20.496Z,0
2016-05-23T01:22:20.171Z,0
2016-05-23T01:23:20.470Z,0
2016-05-23T01:24:20.441Z,0
2016-05-23T01:25:20.257Z,0
2016-05-23T01:26:20.400Z,0
2016-05-23T01:27:20.372Z,0
2016-05-23T01:28:20.359Z,0
2016-05-23T01:29:20.376Z,0
2016-05-23T01:30:20.332Z,0
2016-05-23T01:31:20.289Z,0
2016-05-23T01:32:20.135Z,0
2016-05-23T01:33:20.262Z,0
2016-05-23T01:34:20.250Z,0
2016-05-23T01:35:20.221Z,0
2016-05-23T01:36:20.192Z,0
2016-05-23T01:37:20.195Z,0
2016-05-23T01:38:20.166Z,0
2016-05-23T01:39:20.139Z,0
2016-05-23T01:40:20.141Z,0
2016-05-23T01:41:19.956Z,0
2016-05-23T01:42:20.100Z,0
2016-05-23T01:43:20.055Z,0
2016-05-23T01:44:20.370Z,0
2016-05-23T01:45:19.702Z,0
2016-05-23T01:46:19.844Z,0
2016-05-23T01:47:19.988Z,0
2016-05-23T01:48:19.960Z,0
2016-05-23T01:49:19.946Z,0
2016-05-23T01:50:19.949Z,0
2016-05-23T01:51:19.905Z,0
2016-05-23T01:52:19.891Z,0
2016-05-23T01:53:19.863Z,0
2016-05-23T01:54:19.835Z,0
2016-05-23T01:55:19.838Z,0
2016-05-23T01:56:19.793Z,0
2016-05-23T01:57:19.796Z,0
2016-05-23T01:58:19.768Z,0
2016-05-23T01:59:19.739Z,0
2016-05-23T02:00:19.726Z,0
2016-05-23T02:01:19.712Z,0
2016-05-23T02:02:19.685Z,0
2016-05-23T02:03:19.656Z,0
2016-05-23T02:04:19.486Z,0
2016-05-23T02:05:19.631Z,0
2016-05-23T02:06:19.601Z,0
2016-05-23T02:07:19.588Z,0
2016-05-23T02:08:19.576Z,0
2016-05-23T02:09:19.548Z,0
2016-05-23T02:10:19.519Z,0
2016-05-23T02:11:19.506Z,0
2016-05-23T02:12:19.477Z,0
2016-05-23T02:13:19.463Z,0
2016-05-23T02:14:19.326Z,0
2016-05-23T02:15:19.282Z,0
2016-05-23T02:16:19.410Z,0
2016-05-23T02:17:19.380Z,0
2016-05-23T02:18:19.211Z,0
2016-05-23T02:19:19.355Z,0
2016-05-23T02:20:19.327Z,0
2016-05-23T02:21:19.158Z,0
2016-05-23T02:22:19.129Z,0
2016-05-23T02:23:19.272Z,0
2016-05-23T02:24:19.291Z,0
2016-05-23T02:25:19.230Z,0
2016-05-23T02:26:19.218Z,0
2016-05-23T02:27:19.205Z,0
2016-05-23T02:28:19.176Z,0
2016-05-23T02:29:19.163Z,0
2016-05-23T02:30:18.979Z,0
2016-05-23T02:31:19.106Z,0
2016-05-23T02:32:19.079Z,0
2016-05-23T02:33:19.065Z,0
2016-05-23T02:34:19.052Z,0
2016-05-23T02:35:19.039Z,0
2016-05-23T02:36:18.853Z,0
2016-05-23T02:37:18.998Z,0
2016-05-23T02:38:18.797Z,0
2016-05-23T02:39:18.940Z,0
2016-05-23T02:40:18.927Z,0
2016-05-23T02:41:18.743Z,0
2016-05-23T02:42:18.901Z,0
2016-05-23T02:43:18.873Z,0
2016-05-23T02:44:19.453Z,0
2016-05-23T02:45:18.831Z,0
2016-05-23T02:46:18.647Z,0
2016-05-23T02:47:18.805Z,0
2016-05-23T02:48:18.792Z,4
2016-05-23T02:49:18.764Z,4
2016-05-23T02:50:18.720Z,4
2016-05-23T02:51:18.691Z,4
2016-05-23T02:52:18.678Z,4
2016-05-23T02:53:18.665Z,0
2016-05-23T02:54:18.480Z,4
2016-05-23T02:55:18.624Z,4
2016-05-23T02:56:18.596Z,4
2016-05-23T02:57:18.583Z,4
2016-05-23T02:58:18.569Z,4
2016-05-23T02:59:18.509Z,8
2016-05-23T03:00:18.371Z,8
2016-05-23T03:01:18.343Z,8
2016-05-23T03:02:18.471Z,8
2016-05-23T03:03:18.457Z,12
2016-05-23T03:04:18.460Z,12
2016-05-23T03:05:18.431Z,12
2016-05-23T03:06:18.403Z,12
2016-05-23T03:07:18.218Z,16
2016-05-23T03:08:18.206Z,16
2016-05-23T03:09:18.333Z,16
2016-05-23T03:10:18.320Z,16
2016-05-23T03:11:18.292Z,20
2016-05-23T03:12:18.279Z,20
2016-05-23T03:13:18.266Z,24
2016-05-23T03:14:18.112Z,24
2016-05-23T03:15:18.225Z,28
2016-05-23T03:16:18.040Z,36
2016-05-23T03:17:18.011Z,44
2016-05-23T03:18:18.154Z,52
2016-05-23T03:19:18.142Z,60
2016-05-23T03:20:18.128Z,64
2016-05-23T03:21:18.100Z,68
2016-05-23T03:22:18.072Z,72
2016-05-23T03:23:18.058Z,68
2016-05-23T03:24:17.874Z,72
2016-05-23T03:25:17.877Z,76
2016-05-23T03:26:17.989Z,84
2016-05-23T03:27:17.991Z,88
2016-05-23T03:28:17.962Z,100
2016-05-23T03:29:17.637Z,108
2016-05-23T03:30:17.921Z,116
2016-05-23T03:31:17.908Z,124
2016-05-23T03:32:17.879Z,128
2016-05-23T03:33:17.882Z,132
2016-05-23T03:34:17.837Z,140
2016-05-23T03:35:17.826Z,148
2016-05-23T03:36:17.828Z,160
2016-05-23T03:37:17.784Z,176
2016-05-23T03:38:17.755Z,188
2016-05-23T03:39:17.586Z,200
2016-05-23T03:40:17.729Z,212
2016-05-23T03:41:17.701Z,236
2016-05-23T03:42:17.687Z,256
2016-05-23T03:43:17.675Z,272
2016-05-23T03:44:17.490Z,288
2016-05-23T03:45:17.477Z,304
2016-05-23T03:46:17.433Z,320
2016-05-23T03:47:17.591Z,352
2016-05-23T03:48:17.548Z,380
2016-05-23T03:49:17.535Z,408
2016-05-23T03:50:17.506Z,424
2016-05-23T03:51:17.494Z,428
2016-05-23T03:52:17.322Z,404
2016-05-23T03:53:17.293Z,388
2016-05-23T03:54:17.436Z,372
2016-05-23T03:55:17.408Z,384
2016-05-23T03:56:17.395Z,412
2016-05-23T03:57:17.366Z,428
2016-05-23T03:58:17.353Z,444
2016-05-23T03:59:17.449Z,468
2016-05-23T04:00:17.171Z,456
2016-05-23T04:01:17.299Z,468
2016-05-23T04:02:17.270Z,472
2016-05-23T04:03:17.257Z,540
2016-05-23T04:04:17.244Z,632
2016-05-23T04:05:17.060Z,764
2016-05-23T04:06:17.187Z,904
2016-05-23T04:07:17.174Z,1040
2016-05-23T04:08:17.162Z,1144
2016-05-23T04:09:17.149Z,1232
2016-05-23T04:10:17.135Z,1300
2016-05-23T04:11:16.935Z,1332
2016-05-23T04:12:17.094Z,1348
2016-05-23T04:13:16.909Z,1360
2016-05-23T04:14:17.443Z,1336
2016-05-23T04:15:16.868Z,1256
2016-05-23T04:16:16.995Z,1196
2016-05-23T04:17:16.983Z,1132
2016-05-23T04:18:16.954Z,1060
2016-05-23T04:19:16.941Z,1044
2016-05-23T04:20:16.912Z,1028
2016-05-23T04:21:16.900Z,1076
2016-05-23T04:22:16.902Z,1176
2016-05-23T04:23:16.874Z,1312
2016-05-23T04:24:16.830Z,1456
2016-05-23T04:25:16.832Z,1568
2016-05-23T04:26:16.819Z,1664
2016-05-23T04:27:16.791Z,1780
2016-05-23T04:28:16.606Z,1900
2016-05-23T04:29:16.468Z,2020
2016-05-23T04:30:16.721Z,2136
2016-05-23T04:31:16.535Z,2256
2016-05-23T04:32:16.694Z,2340
2016-05-23T04:33:16.665Z,2364
2016-05-23T04:34:16.637Z,2320
2016-05-23T04:35:16.624Z,2172
2016-05-23T04:36:16.596Z,1896
2016-05-23T04:37:16.427Z,1604
2016-05-23T04:38:16.570Z,1328
2016-05-23T04:39:16.557Z,1156
2016-05-23T04:40:16.216Z,1056
2016-05-23T04:41:16.500Z,1040
2016-05-23T04:42:16.487Z,1020
2016-05-23T04:43:16.459Z,1028
2016-05-23T04:44:17.102Z,1080
2016-05-23T04:45:16.276Z,1152
2016-05-23T04:46:16.404Z,1288
2016-05-23T04:47:16.376Z,1440
2016-05-23T04:48:16.378Z,1572
2016-05-23T04:49:16.350Z,1604
2016-05-23T04:50:16.337Z,1636
2016-05-23T04:51:16.309Z,1744
2016-05-23T04:52:16.281Z,1892
2016-05-23T04:53:16.266Z,1932
2016-05-23T04:54:16.254Z,2124
2016-05-23T04:55:16.225Z,2348
2016-05-23T04:56:16.056Z,2512
2016-05-23T04:57:16.184Z,2712
2016-05-23T04:58:16.000Z,2896
2016-05-23T04:59:16.564Z,2924
2016-05-23T05:00:15.973Z,2864
2016-05-23T05:01:16.117Z,2748
2016-05-23T05:02:16.088Z,2560
2016-05-23T05:03:16.075Z,2520
2016-05-23T05:04:16.046Z,2384
2016-05-23T05:05:16.018Z,2308
2016-05-23T05:06:16.005Z,2012
2016-05-23T05:07:15.993Z,1872
2016-05-23T05:08:15.979Z,1716
2016-05-23T05:09:15.951Z,1648
2016-05-23T05:10:15.938Z,1712
2016-05-23T05:11:15.768Z,1752
2016-05-23T05:12:15.881Z,1856
2016-05-23T05:13:15.884Z,1512
2016-05-23T05:14:16.401Z,1388
2016-05-23T05:15:15.904Z,1408
2016-05-23T05:16:15.656Z,1504
2016-05-23T05:17:15.785Z,1508
2016-05-23T05:18:15.772Z,1456
2016-05-23T05:19:15.759Z,1600
2016-05-23T05:20:15.730Z,1548
2016-05-23T05:21:15.718Z,1280
2016-05-23T05:22:15.689Z,1224
2016-05-23T05:23:15.706Z,1336
2016-05-23T05:24:15.664Z,1224
2016-05-23T05:25:15.634Z,1168
2016-05-23T05:26:15.621Z,1068
2016-05-23T05:27:15.609Z,1180
2016-05-23T05:28:15.424Z,1216
2016-05-23T05:29:15.161Z,1172
2016-05-23T05:30:15.398Z,1048
2016-05-23T05:31:15.369Z,1040
2016-05-23T05:32:15.497Z,1028
2016-05-23T05:33:15.515Z,1040
2016-05-23T05:34:15.471Z,1120
2016-05-23T05:35:15.286Z,1176
2016-05-23T05:36:15.430Z,1052
2016-05-23T05:37:17.166Z,1072
2016-05-23T05:38:15.404Z,1384
2016-05-23T05:39:15.375Z,1384
2016-05-23T05:40:15.363Z,1076
2016-05-23T05:41:15.334Z,1076
2016-05-23T05:42:15.149Z,1336
2016-05-23T05:43:15.308Z,1436
2016-05-23T05:44:15.123Z,1204
2016-05-23T05:45:15.110Z,1224
2016-05-23T05:46:15.222Z,1168
2016-05-23T05:47:15.209Z,1336
2016-05-23T05:48:15.056Z,1616
2016-05-23T05:49:15.167Z,1820
2016-05-23T05:50:15.154Z,1652
2016-05-23T05:51:15.142Z,1624
2016-05-23T05:52:15.114Z,1732
2016-05-23T05:53:15.100Z,1664
2016-05-23T05:54:15.087Z,1692
2016-05-23T05:55:15.059Z,1984
2016-05-23T05:56:15.045Z,2480
2016-05-23T05:57:14.861Z,3008
2016-05-23T05:58:14.989Z,3756
2016-05-23T05:59:14.976Z,4344
2016-05-23T06:00:14.963Z,4480
2016-05-23T06:01:15.466Z,4408
2016-05-23T06:02:14.922Z,4148
2016-05-23T06:03:14.737Z,3804
2016-05-23T06:04:14.911Z,3512
2016-05-23T06:05:14.695Z,3280
2016-05-23T06:06:15.339Z,3212
2016-05-23T06:07:14.825Z,3188
2016-05-23T06:08:14.812Z,3064
2016-05-23T06:09:14.627Z,2752
2016-05-23T06:10:14.615Z,2484
2016-05-23T06:11:17.430Z,2380
2016-05-23T06:12:14.745Z,2236
2016-05-23T06:13:14.716Z,2208
2016-05-23T06:14:14.843Z,2076
2016-05-23T06:15:15.176Z,2104
2016-05-23T06:16:15.006Z,2212
2016-05-23T06:17:14.462Z,1884
2016-05-23T06:18:14.621Z,1896
2016-05-23T06:19:14.452Z,2224
2016-05-23T06:20:14.564Z,2564
2016-05-23T06:21:14.551Z,2824
2016-05-23T06:22:14.538Z,3196
2016-05-23T06:23:14.368Z,3984
2016-05-23T06:24:14.511Z,4708
2016-05-23T06:25:14.311Z,4884
2016-05-23T06:26:14.455Z,4404
2016-05-23T06:27:14.442Z,3720
2016-05-23T06:28:14.428Z,3424
2016-05-23T06:29:14.791Z,3328
2016-05-23T06:30:16.747Z,3352
2016-05-23T06:31:14.359Z,3440
2016-05-23T06:32:14.346Z,3172
2016-05-23T06:33:14.161Z,3100
2016-05-23T06:34:14.148Z,2988
2016-05-23T06:35:14.292Z,2828
2016-05-23T06:36:14.591Z,2700
2016-05-23T06:37:14.250Z,2628
2016-05-23T06:38:14.222Z,2660
2016-05-23T06:39:14.209Z,2800
2016-05-23T06:40:14.179Z,3000
2016-05-23T06:41:16.167Z,3256
2016-05-23T06:42:14.013Z,3432
2016-05-23T06:43:14.157Z,3668
2016-05-23T06:44:14.128Z,3848
2016-05-23T06:45:13.802Z,3840
2016-05-23T06:46:16.243Z,3676
2016-05-23T06:47:13.902Z,3496
2016-05-23T06:48:14.030Z,3080
2016-05-23T06:49:14.043Z,2668
2016-05-23T06:50:15.196Z,2484
2016-05-23T06:51:14.052Z,2588
2016-05-23T06:52:13.908Z,2980
2016-05-23T06:53:14.061Z,3284
2016-05-23T06:54:14.072Z,3476
2016-05-23T06:55:16.334Z,3516
2016-05-23T06:56:14.049Z,3584
2016-05-23T06:57:13.874Z,3704
2016-05-23T06:58:14.010Z,3752
2016-05-23T06:59:13.845Z,3956
2016-05-23T07:00:13.990Z,4272
2016-05-23T07:01:13.966Z,4192
2016-05-23T07:02:13.955Z,4456
2016-05-23T07:03:13.930Z,4640
2016-05-23T07:04:13.934Z,4868
2016-05-23T07:05:13.751Z,5392
2016-05-23T07:06:18.597Z,6036
2016-05-23T07:07:13.883Z,6556
2016-05-23T07:08:13.855Z,6680
2016-05-23T07:09:13.827Z,6240
2016-05-23T07:10:13.814Z,6564
2016-05-23T07:11:13.803Z,6540
2016-05-23T07:12:13.774Z,6368
2016-05-23T07:13:13.605Z,6100
2016-05-23T07:14:13.577Z,5812
2016-05-23T07:15:13.784Z,5636
2016-05-23T07:16:13.692Z,5120
2016-05-23T07:17:13.680Z,5512
2016-05-23T07:18:13.511Z,5444
2016-05-23T07:19:13.638Z,5540
2016-05-23T07:20:13.610Z,4736
2016-05-23T07:21:13.441Z,4824
2016-05-23T07:22:13.585Z,4508
2016-05-23T07:23:13.400Z,4924
2016-05-23T07:24:13.402Z,5016
2016-05-23T07:25:13.530Z,5080
2016-05-23T07:26:13.345Z,5556
2016-05-23T07:27:13.332Z,4468
2016-05-23T07:28:13.475Z,3696
2016-05-23T07:29:13.447Z,4200
2016-05-23T07:30:13.840Z,4792
2016-05-23T07:31:14.609Z,4892
2016-05-23T07:32:13.236Z,4276
2016-05-23T07:33:13.364Z,3968
2016-05-23T07:34:13.350Z,3904
2016-05-23T07:35:13.182Z,4012
2016-05-23T07:36:16.325Z,4664
2016-05-23T07:37:13.297Z,4844
2016-05-23T07:38:13.284Z,5744
2016-05-23T07:39:12.943Z,6188
2016-05-23T07:40:13.242Z,4964
2016-05-23T07:41:14.901Z,3860
2016-05-23T07:42:13.200Z,3456
2016-05-23T07:43:13.031Z,3488
2016-05-23T07:44:13.158Z,3764
2016-05-23T07:45:13.147Z,3420
2016-05-23T07:46:14.227Z,3496
2016-05-23T07:47:12.791Z,3480
2016-05-23T07:48:13.076Z,3976
2016-05-23T07:49:13.063Z,4588
2016-05-23T07:50:13.034Z,5624
2016-05-23T07:51:13.022Z,6492
2016-05-23T07:52:12.852Z,6524
2016-05-23T07:53:12.980Z,6452
2016-05-23T07:54:12.967Z,5280
2016-05-23T07:55:12.798Z,4484
2016-05-23T07:56:12.941Z,5164
2016-05-23T07:57:12.929Z,5436
2016-05-23T07:58:12.900Z,5520
2016-05-23T07:59:12.871Z,5516
2016-05-23T08:00:13.451Z,7180
2016-05-23T08:01:12.830Z,8320
2016-05-23T08:02:12.832Z,8676
2016-05-23T08:03:12.804Z,9876
2016-05-23T08:04:12.619Z,10360
2016-05-23T08:05:12.606Z,11528
2016-05-23T08:06:13.156Z,10332
2016-05-23T08:07:12.721Z,11540
2016-05-23T08:08:12.552Z,12884
2016-05-23T08:09:12.711Z,13320
2016-05-23T08:10:12.511Z,13784
2016-05-23T08:11:13.936Z,13996
2016-05-23T08:12:12.641Z,11440
2016-05-23T08:13:12.612Z,11656
2016-05-23T08:14:12.584Z,11436
2016-05-23T08:15:12.664Z,11400
2016-05-23T08:16:12.401Z,10588
2016-05-23T08:17:12.544Z,9376
2016-05-23T08:18:12.532Z,10424
2016-05-23T08:19:12.503Z,10032
2016-05-23T08:20:12.491Z,10140
2016-05-23T08:21:13.165Z,8504
2016-05-23T08:22:12.449Z,8388
2016-05-23T08:23:12.435Z,10352
2016-05-23T08:24:12.423Z,11460
2016-05-23T08:25:12.393Z,11856
2016-05-23T08:26:12.226Z,10696
2016-05-23T08:27:12.353Z,8988
2016-05-23T08:28:12.199Z,9480
2016-05-23T08:29:12.373Z,11980
2016-05-23T08:30:12.001Z,14708
2016-05-23T08:31:13.129Z,16976
2016-05-23T08:32:12.273Z,18332
2016-05-23T08:33:12.259Z,18944
2016-05-23T08:34:12.247Z,18324
2016-05-23T08:35:12.218Z,17396
2016-05-23T08:36:12.034Z,16692
2016-05-23T08:37:12.176Z,16328
2016-05-23T08:38:12.164Z,16784
2016-05-23T08:39:11.979Z,17828
2016-05-23T08:40:12.122Z,20864
2016-05-23T08:41:12.109Z,22976
2016-05-23T08:42:12.096Z,25312
2016-05-23T08:43:12.067Z,25760
2016-05-23T08:44:12.055Z,22272
2016-05-23T08:45:12.370Z,19200
2016-05-23T08:46:13.811Z,16588
2016-05-23T08:47:12.016Z,15416
2016-05-23T08:48:11.831Z,15756
2016-05-23T08:49:11.803Z,15376
2016-05-23T08:50:11.961Z,14568
2016-05-23T08:51:11.963Z,13808
2016-05-23T08:52:11.920Z,12672
2016-05-23T08:53:11.907Z,14068
2016-05-23T08:54:11.879Z,12512
2016-05-23T08:55:11.882Z,11788
2016-05-23T08:56:14.744Z,10016
2016-05-23T08:57:11.855Z,8140
2016-05-23T08:58:11.843Z,6648
2016-05-23T08:59:11.814Z,5472
2016-05-23T09:00:11.801Z,5808
2016-05-23T09:01:11.616Z,5368
2016-05-23T09:02:11.618Z,4660
2016-05-23T09:03:11.731Z,4632
2016-05-23T09:04:11.562Z,4592
2016-05-23T09:05:11.706Z,4768
2016-05-23T09:06:11.692Z,5240
2016-05-23T09:07:11.679Z,5696
2016-05-23T09:08:11.510Z,6184
2016-05-23T09:09:11.637Z,6784
2016-05-23T09:10:11.609Z,7576
2016-05-23T09:11:11.283Z,8112
2016-05-23T09:12:11.583Z,8732
2016-05-23T09:13:11.414Z,9172
2016-05-23T09:14:11.542Z,9444
2016-05-23T09:15:11.826Z,9624
2016-05-23T09:16:11.360Z,9796
2016-05-23T09:17:11.519Z,9600
2016-05-23T09:18:12.366Z,9360
2016-05-23T09:19:11.447Z,9348
2016-05-23T09:20:11.277Z,9332
2016-05-23T09:21:11.405Z,8980
2016-05-23T09:22:13.485Z,8616
2016-05-23T09:23:11.394Z,8512
2016-05-23T09:24:11.349Z,7952
2016-05-23T09:25:11.290Z,7736
2016-05-23T09:26:11.324Z,6952
2016-05-23T09:27:13.405Z,5936
2016-05-23T09:28:11.282Z,5048
2016-05-23T09:29:11.270Z,4832
2016-05-23T09:30:11.601Z,4716
2016-05-23T09:31:11.228Z,5308
2016-05-23T09:32:11.231Z,6052
2016-05-23T09:33:11.202Z,5528
2016-05-23T09:34:11.173Z,4924
2016-05-23T09:35:11.145Z,4496
2016-05-23T09:36:11.148Z,4760
2016-05-23T09:37:14.025Z,5044
2016-05-23T09:38:11.106Z,5000
2016-05-23T09:39:10.937Z,5228
2016-05-23T09:40:10.752Z,5464
2016-05-23T09:41:11.052Z,5936
2016-05-23T09:42:11.023Z,6348
2016-05-23T09:43:11.011Z,7396
2016-05-23T09:44:10.842Z,7604
2016-05-23T09:45:11.594Z,8140
2016-05-23T09:46:10.956Z,8920
2016-05-23T09:47:10.786Z,9516
2016-05-23T09:48:10.915Z,10324
2016-05-23T09:49:10.886Z,11452
2016-05-23T09:50:10.732Z,12008
2016-05-23T09:51:10.860Z,13028
2016-05-23T09:52:10.691Z,13704
2016-05-23T09:53:10.694Z,15348
2016-05-23T09:54:10.821Z,16876
2016-05-23T09:55:10.480Z,18436
2016-05-23T09:56:10.749Z,18616
2016-05-23T09:57:12.845Z,18456
2016-05-23T09:58:10.723Z,17968
2016-05-23T09:59:10.710Z,16256
2016-05-23T10:00:10.869Z,14104
2016-05-23T10:01:10.668Z,11812
2016-05-23T10:02:10.359Z,10636
2016-05-23T10:03:10.487Z,9764
2016-05-23T10:04:10.615Z,9212
2016-05-23T10:05:10.601Z,8736
2016-05-23T10:06:10.588Z,8504
2016-05-23T10:07:10.559Z,7648
2016-05-23T10:08:10.546Z,7352
2016-05-23T10:09:10.517Z,7148
2016-05-23T10:10:10.348Z,9260
2016-05-23T10:11:10.523Z,9440
2016-05-23T10:12:10.307Z,9424
2016-05-23T10:13:10.466Z,10644
2016-05-23T10:14:10.437Z,12308
2016-05-23T10:15:10.269Z,12548
2016-05-23T10:16:10.412Z,11044
2016-05-23T10:17:10.383Z,10192
2016-05-23T10:18:10.369Z,9980
2016-05-23T10:19:10.342Z,9344
2016-05-23T10:20:10.313Z,8484
2016-05-23T10:21:10.160Z,8048
2016-05-23T10:22:10.287Z,7516
2016-05-23T10:23:10.118Z,7152
2016-05-23T10:24:10.261Z,7388
2016-05-23T10:25:10.077Z,7780
2016-05-23T10:26:10.235Z,7608
2016-05-23T10:27:10.191Z,8184
2016-05-23T10:28:10.038Z,8300
2016-05-23T10:29:10.010Z,8816
2016-05-23T10:30:10.168Z,10320
2016-05-23T10:31:10.124Z,10756
2016-05-23T10:32:09.955Z,9908
2016-05-23T10:33:10.114Z,9636
2016-05-23T10:34:10.881Z,9196
2016-05-23T10:35:10.056Z,8784
2016-05-23T10:36:09.887Z,8000
2016-05-23T10:37:09.859Z,7584
2016-05-23T10:38:10.001Z,7500
2016-05-23T10:39:10.583Z,8160
2016-05-23T10:40:09.961Z,10020
2016-05-23T10:41:09.948Z,10024
2016-05-23T10:42:09.919Z,9624
2016-05-23T10:43:09.750Z,8180
2016-05-23T10:44:09.908Z,7792
2016-05-23T10:45:09.989Z,8268
2016-05-23T10:46:09.852Z,7812
2016-05-23T10:47:09.683Z,7984
2016-05-23T10:48:09.810Z,7660
2016-05-23T10:49:09.813Z,6928
2016-05-23T10:50:09.784Z,7288
2016-05-23T10:51:09.756Z,8304
2016-05-23T10:52:09.586Z,9944
2016-05-23T10:53:09.574Z,12732
2016-05-23T10:54:11.280Z,18292
2016-05-23T10:55:09.689Z,20544
2016-05-23T10:56:09.675Z,16300
2016-05-23T10:57:09.646Z,15248
2016-05-23T10:58:09.618Z,13188
2016-05-23T10:59:09.621Z,13032
2016-05-23T11:00:09.530Z,14632
2016-05-23T11:01:09.579Z,13728
2016-05-23T11:02:09.551Z,12444
2016-05-23T11:03:09.538Z,11316
2016-05-23T11:04:09.526Z,10996
2016-05-23T11:05:09.496Z,11156
2016-05-23T11:06:09.187Z,11132
2016-05-23T11:07:09.315Z,10916
2016-05-23T11:08:09.458Z,11192
2016-05-23T11:09:09.429Z,11792
2016-05-23T11:10:09.417Z,12364
2016-05-23T11:11:09.387Z,11752
2016-05-23T11:12:09.375Z,10416
2016-05-23T11:13:09.378Z,9196
2016-05-23T11:14:09.192Z,9064
2016-05-23T11:15:09.351Z,9308
2016-05-23T11:16:09.323Z,10240
2016-05-23T11:17:09.295Z,11076
2016-05-23T11:18:09.267Z,11616
2016-05-23T11:19:09.253Z,12800
2016-05-23T11:20:08.912Z,12632
2016-05-23T11:21:09.227Z,14008
2016-05-23T11:22:09.199Z,11944
2016-05-23T11:23:09.202Z,10796
2016-05-23T11:24:09.172Z,9448
2016-05-23T11:25:09.144Z,8900
2016-05-23T11:26:09.147Z,8496
2016-05-23T11:27:09.150Z,8016
2016-05-23T11:28:09.090Z,8780
2016-05-23T11:29:08.936Z,9384
2016-05-23T11:30:08.908Z,10020
2016-05-23T11:31:08.894Z,10548
2016-05-23T11:32:09.022Z,12376
2016-05-23T11:33:08.869Z,16248
2016-05-23T11:34:08.982Z,18720
2016-05-23T11:35:08.812Z,22464
2016-05-23T11:36:08.955Z,22656
2016-05-23T11:37:08.630Z,16924
2016-05-23T11:38:08.757Z,14312
2016-05-23T11:39:08.916Z,13284
2016-05-23T11:40:08.872Z,14240
2016-05-23T11:41:08.859Z,15748
2016-05-23T11:42:08.690Z,18084
2016-05-23T11:43:08.833Z,21184
2016-05-23T11:44:08.820Z,20320
2016-05-23T11:45:08.667Z,18720
2016-05-23T11:46:08.778Z,19776
2016-05-23T11:47:08.766Z,19872
2016-05-23T11:48:08.597Z,19648
2016-05-23T11:49:08.583Z,23808
2016-05-23T11:50:08.711Z,22592
2016-05-23T11:51:08.573Z,22048
2016-05-23T11:52:08.670Z,20992
2016-05-23T11:53:08.642Z,19552
2016-05-23T11:54:08.644Z,19168
2016-05-23T11:55:08.475Z,20960
2016-05-23T11:56:08.446Z,20128
2016-05-23T11:57:08.589Z,15676
2016-05-23T11:58:08.592Z,16356
2016-05-23T11:59:08.549Z,15064
2016-05-23T12:00:08.739Z,12296
2016-05-23T12:01:08.521Z,12692
2016-05-23T12:02:08.352Z,17992
2016-05-23T12:03:08.496Z,18656
2016-05-23T12:04:08.468Z,15420
2016-05-23T12:05:08.455Z,20160
2016-05-23T12:06:08.443Z,20064
2016-05-23T12:07:08.429Z,16184
2016-05-23T12:08:08.260Z,17964
2016-05-23T12:09:08.404Z,16192
2016-05-23T12:10:08.375Z,15344
2016-05-23T12:11:08.362Z,17976
2016-05-23T12:12:08.208Z,20864
2016-05-23T12:13:08.320Z,22688
2016-05-23T12:14:08.167Z,23328
2016-05-23T12:15:08.451Z,18052
2016-05-23T12:16:08.312Z,18060
2016-05-23T12:17:08.112Z,16560
2016-05-23T12:18:08.255Z,17904
2016-05-23T12:19:08.242Z,15428
2016-05-23T12:20:08.214Z,12028
2016-05-23T12:21:08.061Z,12020
2016-05-23T12:22:08.204Z,13052
2016-05-23T12:23:08.003Z,12140
2016-05-23T12:24:08.162Z,10972
2016-05-23T12:25:08.133Z,11232
2016-05-23T12:26:08.136Z,11372
2016-05-23T12:27:08.092Z,9840
2016-05-23T12:28:08.111Z,9036
2016-05-23T12:29:07.941Z,9408
2016-05-23T12:30:08.069Z,8996
2016-05-23T12:31:08.041Z,9300
2016-05-23T12:32:08.027Z,10068
2016-05-23T12:33:07.999Z,12380
2016-05-23T12:34:08.001Z,15548
2016-05-23T12:35:07.832Z,19968
2016-05-23T12:36:07.976Z,20032
2016-05-23T12:37:07.947Z,19968
2016-05-23T12:38:07.935Z,19648
2016-05-23T12:39:07.906Z,20512
2016-05-23T12:40:07.908Z,20512
2016-05-23T12:41:07.801Z,19520
2016-05-23T12:42:07.648Z,21344
2016-05-23T12:43:07.854Z,21568
2016-05-23T12:44:07.685Z,22016
2016-05-23T12:45:07.953Z,20192
2016-05-23T12:46:07.581Z,18432
2016-05-23T12:47:07.787Z,16760
2016-05-23T12:48:07.774Z,15512
2016-05-23T12:49:07.667Z,15172
2016-05-23T12:50:07.810Z,15372
2016-05-23T12:51:07.735Z,14656
2016-05-23T12:52:07.878Z,16744
2016-05-23T12:53:07.381Z,20160
2016-05-23T12:54:07.384Z,16028
2016-05-23T12:55:07.495Z,15728
2016-05-23T12:56:07.482Z,16068
2016-05-23T12:57:07.625Z,15704
2016-05-23T12:58:07.613Z,15492
2016-05-23T12:59:07.600Z,15088
2016-05-23T13:00:07.477Z,13504
2016-05-23T13:01:07.558Z,12728
2016-05-23T13:02:07.405Z,13388
2016-05-23T13:03:07.533Z,11296
2016-05-23T13:04:07.535Z,10172
2016-05-23T13:05:07.507Z,9800
2016-05-23T13:06:07.479Z,10464
2016-05-23T13:07:07.496Z,11772
2016-05-23T13:08:07.452Z,11880
2016-05-23T13:09:07.143Z,11304
2016-05-23T13:10:07.427Z,11500
2016-05-23T13:11:07.413Z,11852
2016-05-23T13:12:07.401Z,11328
2016-05-23T13:13:07.215Z,10736
2016-05-23T13:14:07.375Z,11548
2016-05-23T13:15:07.361Z,12488
2016-05-23T13:16:07.334Z,12396
2016-05-23T13:17:07.320Z,12664
2016-05-23T13:18:07.292Z,12064
2016-05-23T13:19:07.139Z,14520
2016-05-23T13:20:07.156Z,15656
2016-05-23T13:21:07.347Z,16072
2016-05-23T13:22:07.240Z,16256
2016-05-23T13:23:07.242Z,16048
2016-05-23T13:24:07.198Z,14864
2016-05-23T13:25:07.201Z,15316
2016-05-23T13:26:07.158Z,15996
2016-05-23T13:27:07.144Z,14332
2016-05-23T13:28:07.131Z,14272
2016-05-23T13:29:07.134Z,15008
2016-05-23T13:30:07.089Z,13752
2016-05-23T13:31:07.077Z,14108
2016-05-23T13:32:07.063Z,15704